Rocklake, North Dakota
Current Conditions -  °F | °C
As of 1:55 PM on Sunday 23 Nov 2014 (Local Time) from K06D Reporting Station
Light Snow Light Snow  
Wind Chill: -19°   Ceiling: 1000
Heat Index: -9°   Visibility: 10mi
Dew Point: -10°   Wind: 24mph
Humidity: 93%   Direction: 340°NNW
Pressure: 29.51"   Gusts: 30mph
Location:  48.79°N, 99.25°W
Report Text: K06D 231955Z AUTO 34021G26KT 10SM -SN BKN010 M09/M10 A2951 RMK AO2
Loading
Personal Weather Stations






























Interactive Weather Map New forecast layout! Learn more

10-Day Weather Forecast

Advertisements
Track Severe Weather on mobile